sensor_id;sensor_type;location;lat;lon;timestamp;temperature;humidity
11035;DHT22;5571;48.110;-1.706;2023-08-20T00:00:29;19.60;99.90
11035;DHT22;5571;48.110;-1.706;2023-08-20T00:03:02;19.50;99.90
11035;DHT22;5571;48.110;-1.706;2023-08-20T00:05:29;19.50;99.90
11035;DHT22;5571;48.110;-1.706;2023-08-20T00:07:55;19.50;99.90
11035;DHT22;5571;48.110;-1.706;2023-08-20T00:10:21;19.60;99.90
11035;DHT22;5571;48.110;-1.706;2023-08-20T00:12:46;19.60;99.90
11035;DHT22;5571;48.110;-1.706;2023-08-20T00:15:12;19.60;99.90
11035;DHT22;5571;48.110;-1.706;2023-08-20T00:17:39;19.60;99.90
11035;DHT22;5571;48.110;-1.706;2023-08-20T00:20:06;19.50;99.90
11035;DHT22;5571;48.110;-1.706;2023-08-20T00:22:42;19.50;99.90
11035;DHT22;5571;48.110;-1.706;2023-08-20T00:25:11;19.50;99.90
11035;DHT22;5571;48.110;-1.706;2023-08-20T00:27:38;19.60;99.90
11035;DHT22;5571;48.110;-1.706;2023-08-20T00:30:04;19.60;99.90
11035;DHT22;5571;48.110;-1.706;2023-08-20T00:32:30;19.50;99.90
11035;DHT22;5571;48.110;-1.706;2023-08-20T00:34:55;19.60;99.90
11035;DHT22;5571;48.110;-1.706;2023-08-20T00:37:21;19.50;99.90
11035;DHT22;5571;48.110;-1.706;2023-08-20T00:39:47;19.50;99.90
11035;DHT22;5571;48.110;-1.706;2023-08-20T00:42:13;19.40;99.90
11035;DHT22;5571;48.110;-1.706;2023-08-20T00:44:42;19.50;99.90
11035;DHT22;5571;48.110;-1.706;2023-08-20T00:47:10;19.40;99.90
11035;DHT22;5571;48.110;-1.706;2023-08-20T00:49:36;19.40;99.90
11035;DHT22;5571;48.110;-1.706;2023-08-20T00:52:02;19.30;99.90
11035;DHT22;5571;48.110;-1.706;2023-08-20T00:54:29;19.30;99.90
11035;DHT22;5571;48.110;-1.706;2023-08-20T00:56:55;19.30;99.90
11035;DHT22;5571;48.110;-1.706;2023-08-20T00:59:21;19.20;99.90
11035;DHT22;5571;48.110;-1.706;2023-08-20T01:01:46;19.10;99.90
11035;DHT22;5571;48.110;-1.706;2023-08-20T01:04:12;19.10;99.90
11035;DHT22;5571;48.110;-1.706;2023-08-20T01:11:59;19.00;99.90
11035;DHT22;5571;48.110;-1.706;2023-08-20T01:14:25;19.00;99.90
11035;DHT22;5571;48.110;-1.706;2023-08-20T01:16:51;19.00;99.90
11035;DHT22;5571;48.110;-1.706;2023-08-20T01:19:18;18.90;99.90
11035;DHT22;5571;48.110;-1.706;2023-08-20T01:27:39;18.80;99.90
11035;DHT22;5571;48.110;-1.706;2023-08-20T01:30:09;18.80;99.90
11035;DHT22;5571;48.110;-1.706;2023-08-20T01:32:36;18.80;99.90
11035;DHT22;5571;48.110;-1.706;2023-08-20T01:35:02;18.80;99.90
11035;DHT22;5571;48.110;-1.706;2023-08-20T01:37:28;18.80;99.90
11035;DHT22;5571;48.110;-1.706;2023-08-20T01:39:54;18.80;99.90
11035;DHT22;5571;48.110;-1.706;2023-08-20T01:42:20;18.80;99.90
11035;DHT22;5571;48.110;-1.706;2023-08-20T01:44:45;18.70;99.90
11035;DHT22;5571;48.110;-1.706;2023-08-20T01:47:11;18.60;99.90
11035;DHT22;5571;48.110;-1.706;2023-08-20T01:49:36;18.60;99.90
11035;DHT22;5571;48.110;-1.706;2023-08-20T01:52:02;18.60;99.90
11035;DHT22;5571;48.110;-1.706;2023-08-20T01:54:29;18.60;99.90
11035;DHT22;5571;48.110;-1.706;2023-08-20T01:56:54;18.60;99.90
11035;DHT22;5571;48.110;-1.706;2023-08-20T01:59:22;18.60;99.90
11035;DHT22;5571;48.110;-1.706;2023-08-20T02:01:49;18.50;99.90
11035;DHT22;5571;48.110;-1.706;2023-08-20T02:04:14;18.50;99.90
11035;DHT22;5571;48.110;-1.706;2023-08-20T02:06:40;18.50;99.90
11035;DHT22;5571;48.110;-1.706;2023-08-20T02:09:05;18.50;99.90
11035;DHT22;5571;48.110;-1.706;2023-08-20T02:11:31;18.60;99.90
11035;DHT22;5571;48.110;-1.706;2023-08-20T02:14:01;18.50;99.90
11035;DHT22;5571;48.110;-1.706;2023-08-20T02:16:27;18.50;99.90
11035;DHT22;5571;48.110;-1.706;2023-08-20T02:18:52;18.40;99.90
11035;DHT22;5571;48.110;-1.706;2023-08-20T02:21:18;18.40;99.90
11035;DHT22;5571;48.110;-1.706;2023-08-20T02:23:43;18.40;99.90
11035;DHT22;5571;48.110;-1.706;2023-08-20T02:26:09;18.30;99.90
11035;DHT22;5571;48.110;-1.706;2023-08-20T02:28:35;18.40;99.90
11035;DHT22;5571;48.110;-1.706;2023-08-20T02:31:04;18.30;99.90
11035;DHT22;5571;48.110;-1.706;2023-08-20T02:33:30;18.30;99.90
11035;DHT22;5571;48.110;-1.706;2023-08-20T02:35:57;18.40;99.90
11035;DHT22;5571;48.110;-1.706;2023-08-20T02:38:25;18.40;99.90
11035;DHT22;5571;48.110;-1.706;2023-08-20T02:40:51;18.30;99.90
11035;DHT22;5571;48.110;-1.706;2023-08-20T02:43:16;18.30;99.90
11035;DHT22;5571;48.110;-1.706;2023-08-20T02:45:42;18.40;99.90
11035;DHT22;5571;48.110;-1.706;2023-08-20T02:48:08;18.40;99.90
11035;DHT22;5571;48.110;-1.706;2023-08-20T02:50:34;18.30;99.90
11035;DHT22;5571;48.110;-1.706;2023-08-20T02:53:00;18.30;99.90
11035;DHT22;5571;48.110;-1.706;2023-08-20T02:55:25;18.30;99.90
11035;DHT22;5571;48.110;-1.706;2023-08-20T02:57:51;18.30;99.90
11035;DHT22;5571;48.110;-1.706;2023-08-20T03:00:17;18.20;99.90
11035;DHT22;5571;48.110;-1.706;2023-08-20T03:02:42;18.20;99.90
11035;DHT22;5571;48.110;-1.706;2023-08-20T03:05:10;18.20;99.90
11035;DHT22;5571;48.110;-1.706;2023-08-20T03:07:36;18.10;99.90
11035;DHT22;5571;48.110;-1.706;2023-08-20T03:10:02;18.10;99.90
11035;DHT22;5571;48.110;-1.706;2023-08-20T03:12:28;18.00;99.90
11035;DHT22;5571;48.110;-1.706;2023-08-20T03:14:54;18.00;99.90
11035;DHT22;5571;48.110;-1.706;2023-08-20T03:17:20;18.00;99.90
11035;DHT22;5571;48.110;-1.706;2023-08-20T03:19:57;17.90;99.90
11035;DHT22;5571;48.110;-1.706;2023-08-20T03:22:25;17.80;99.90
11035;DHT22;5571;48.110;-1.706;2023-08-20T03:24:51;17.70;99.90
11035;DHT22;5571;48.110;-1.706;2023-08-20T03:27:17;17.80;99.90
11035;DHT22;5571;48.110;-1.706;2023-08-20T03:29:44;17.80;99.90
11035;DHT22;5571;48.110;-1.706;2023-08-20T03:32:10;17.80;99.90
11035;DHT22;5571;48.110;-1.706;2023-08-20T03:34:35;17.70;99.90
11035;DHT22;5571;48.110;-1.706;2023-08-20T03:37:01;17.70;99.90
11035;DHT22;5571;48.110;-1.706;2023-08-20T03:39:27;17.70;99.90
11035;DHT22;5571;48.110;-1.706;2023-08-20T03:41:53;17.70;99.90
11035;DHT22;5571;48.110;-1.706;2023-08-20T03:44:19;17.70;99.90
11035;DHT22;5571;48.110;-1.706;2023-08-20T03:46:45;17.70;99.90
11035;DHT22;5571;48.110;-1.706;2023-08-20T03:49:10;17.70;99.90
11035;DHT22;5571;48.110;-1.706;2023-08-20T03:51:36;17.80;99.90
11035;DHT22;5571;48.110;-1.706;2023-08-20T03:54:02;17.80;99.90
11035;DHT22;5571;48.110;-1.706;2023-08-20T03:56:28;17.80;99.90
11035;DHT22;5571;48.110;-1.706;2023-08-20T03:58:54;17.70;99.90
11035;DHT22;5571;48.110;-1.706;2023-08-20T04:01:20;17.70;99.90
11035;DHT22;5571;48.110;-1.706;2023-08-20T04:03:46;17.70;99.90
11035;DHT22;5571;48.110;-1.706;2023-08-20T04:06:14;17.70;99.90
11035;DHT22;5571;48.110;-1.706;2023-08-20T04:08:40;17.60;99.90
11035;DHT22;5571;48.110;-1.706;2023-08-20T04:11:06;17.60;99.90
11035;DHT22;5571;48.110;-1.706;2023-08-20T04:13:32;17.60;99.90
11035;DHT22;5571;48.110;-1.706;2023-08-20T04:15:59;17.50;99.90
11035;DHT22;5571;48.110;-1.706;2023-08-20T04:18:24;17.50;99.90
11035;DHT22;5571;48.110;-1.706;2023-08-20T04:20:51;17.50;99.90
11035;DHT22;5571;48.110;-1.706;2023-08-20T04:23:18;17.50;99.90
11035;DHT22;5571;48.110;-1.706;2023-08-20T04:25:43;17.50;99.90
11035;DHT22;5571;48.110;-1.706;2023-08-20T04:28:10;17.60;99.90
11035;DHT22;5571;48.110;-1.706;2023-08-20T04:30:37;17.60;99.90
11035;DHT22;5571;48.110;-1.706;2023-08-20T04:33:04;17.60;99.90
11035;DHT22;5571;48.110;-1.706;2023-08-20T04:35:30;17.50;99.90
11035;DHT22;5571;48.110;-1.706;2023-08-20T04:37:56;17.50;99.90
11035;DHT22;5571;48.110;-1.706;2023-08-20T04:40:22;17.40;99.90
11035;DHT22;5571;48.110;-1.706;2023-08-20T04:42:48;17.40;99.90
11035;DHT22;5571;48.110;-1.706;2023-08-20T04:45:14;17.40;99.90
11035;DHT22;5571;48.110;-1.706;2023-08-20T04:47:42;17.30;99.90
11035;DHT22;5571;48.110;-1.706;2023-08-20T04:50:08;17.30;99.90
11035;DHT22;5571;48.110;-1.706;2023-08-20T04:52:34;17.20;99.90
11035;DHT22;5571;48.110;-1.706;2023-08-20T04:55:01;17.20;99.90
11035;DHT22;5571;48.110;-1.706;2023-08-20T04:57:26;17.20;99.90
11035;DHT22;5571;48.110;-1.706;2023-08-20T04:59:52;17.30;99.90
11035;DHT22;5571;48.110;-1.706;2023-08-20T05:02:18;17.30;99.90
11035;DHT22;5571;48.110;-1.706;2023-08-20T05:04:43;17.20;99.90
11035;DHT22;5571;48.110;-1.706;2023-08-20T05:07:09;17.00;99.90
11035;DHT22;5571;48.110;-1.706;2023-08-20T05:09:36;17.00;99.90
11035;DHT22;5571;48.110;-1.706;2023-08-20T05:12:02;17.10;99.90
11035;DHT22;5571;48.110;-1.706;2023-08-20T05:14:28;17.10;99.90
11035;DHT22;5571;48.110;-1.706;2023-08-20T05:16:54;17.10;99.90
11035;DHT22;5571;48.110;-1.706;2023-08-20T05:19:20;17.10;99.90
11035;DHT22;5571;48.110;-1.706;2023-08-20T05:21:47;17.00;99.90
11035;DHT22;5571;48.110;-1.706;2023-08-20T05:24:12;16.80;99.90
11035;DHT22;5571;48.110;-1.706;2023-08-20T05:26:38;16.70;99.90
11035;DHT22;5571;48.110;-1.706;2023-08-20T05:29:04;16.50;99.90
11035;DHT22;5571;48.110;-1.706;2023-08-20T05:31:29;16.50;99.90
11035;DHT22;5571;48.110;-1.706;2023-08-20T05:33:55;16.60;99.90
11035;DHT22;5571;48.110;-1.706;2023-08-20T05:36:20;16.50;99.90
11035;DHT22;5571;48.110;-1.706;2023-08-20T05:38:46;16.50;99.90
11035;DHT22;5571;48.110;-1.706;2023-08-20T05:41:12;16.50;99.90
11035;DHT22;5571;48.110;-1.706;2023-08-20T05:43:37;16.70;99.90
11035;DHT22;5571;48.110;-1.706;2023-08-20T05:46:03;16.40;99.90
11035;DHT22;5571;48.110;-1.706;2023-08-20T05:48:29;16.40;99.90
11035;DHT22;5571;48.110;-1.706;2023-08-20T05:50:55;16.30;99.90
11035;DHT22;5571;48.110;-1.706;2023-08-20T05:53:22;16.10;99.90
11035;DHT22;5571;48.110;-1.706;2023-08-20T05:55:48;16.00;99.90
11035;DHT22;5571;48.110;-1.706;2023-08-20T05:58:13;16.00;99.90
11035;DHT22;5571;48.110;-1.706;2023-08-20T06:00:39;15.80;99.90
11035;DHT22;5571;48.110;-1.706;2023-08-20T06:03:05;15.80;99.90
11035;DHT22;5571;48.110;-1.706;2023-08-20T06:05:33;15.90;99.90
11035;DHT22;5571;48.110;-1.706;2023-08-20T06:07:59;16.00;99.90
11035;DHT22;5571;48.110;-1.706;2023-08-20T06:10:24;16.00;99.90
11035;DHT22;5571;48.110;-1.706;2023-08-20T06:12:50;16.10;99.90
11035;DHT22;5571;48.110;-1.706;2023-08-20T06:15:16;16.00;99.90
11035;DHT22;5571;48.110;-1.706;2023-08-20T06:17:41;16.00;99.90
11035;DHT22;5571;48.110;-1.706;2023-08-20T06:20:07;16.00;99.90
11035;DHT22;5571;48.110;-1.706;2023-08-20T06:22:34;16.20;99.90
11035;DHT22;5571;48.110;-1.706;2023-08-20T06:24:59;16.40;99.90
11035;DHT22;5571;48.110;-1.706;2023-08-20T06:27:25;16.50;99.90
11035;DHT22;5571;48.110;-1.706;2023-08-20T06:29:51;16.70;99.90
11035;DHT22;5571;48.110;-1.706;2023-08-20T06:32:17;16.90;99.90
11035;DHT22;5571;48.110;-1.706;2023-08-20T06:34:42;17.00;99.90
11035;DHT22;5571;48.110;-1.706;2023-08-20T06:37:08;17.00;99.90
11035;DHT22;5571;48.110;-1.706;2023-08-20T06:39:33;17.00;99.90
11035;DHT22;5571;48.110;-1.706;2023-08-20T06:41:59;17.10;99.90
11035;DHT22;5571;48.110;-1.706;2023-08-20T06:44:25;17.20;99.90
11035;DHT22;5571;48.110;-1.706;2023-08-20T06:46:50;17.20;99.90
11035;DHT22;5571;48.110;-1.706;2023-08-20T06:49:16;17.20;99.90
11035;DHT22;5571;48.110;-1.706;2023-08-20T06:51:42;17.20;99.90
11035;DHT22;5571;48.110;-1.706;2023-08-20T06:54:07;17.30;99.90
11035;DHT22;5571;48.110;-1.706;2023-08-20T06:56:33;17.40;99.90
11035;DHT22;5571;48.110;-1.706;2023-08-20T06:58:59;17.50;99.90
11035;DHT22;5571;48.110;-1.706;2023-08-20T07:01:25;17.60;99.90
11035;DHT22;5571;48.110;-1.706;2023-08-20T07:03:51;17.70;99.90
11035;DHT22;5571;48.110;-1.706;2023-08-20T07:06:16;17.90;99.90
11035;DHT22;5571;48.110;-1.706;2023-08-20T07:08:44;18.10;99.90
11035;DHT22;5571;48.110;-1.706;2023-08-20T07:11:10;18.10;99.90
11035;DHT22;5571;48.110;-1.706;2023-08-20T07:13:36;18.30;99.90
11035;DHT22;5571;48.110;-1.706;2023-08-20T07:16:01;18.50;99.90
11035;DHT22;5571;48.110;-1.706;2023-08-20T07:18:27;18.60;99.90
11035;DHT22;5571;48.110;-1.706;2023-08-20T07:20:55;18.50;99.90
11035;DHT22;5571;48.110;-1.706;2023-08-20T07:23:21;18.50;99.90
11035;DHT22;5571;48.110;-1.706;2023-08-20T07:25:46;18.40;99.90
11035;DHT22;5571;48.110;-1.706;2023-08-20T07:28:14;18.50;99.90
11035;DHT22;5571;48.110;-1.706;2023-08-20T07:30:39;18.50;99.90
11035;DHT22;5571;48.110;-1.706;2023-08-20T07:33:06;18.50;99.90
11035;DHT22;5571;48.110;-1.706;2023-08-20T07:35:32;18.70;99.90
11035;DHT22;5571;48.110;-1.706;2023-08-20T07:37:57;19.00;99.90
11035;DHT22;5571;48.110;-1.706;2023-08-20T07:40:23;19.20;99.90
11035;DHT22;5571;48.110;-1.706;2023-08-20T07:42:49;19.20;99.90
11035;DHT22;5571;48.110;-1.706;2023-08-20T07:45:16;19.40;99.90
11035;DHT22;5571;48.110;-1.706;2023-08-20T07:47:41;19.50;99.90
11035;DHT22;5571;48.110;-1.706;2023-08-20T07:50:07;19.70;99.90
11035;DHT22;5571;48.110;-1.706;2023-08-20T07:52:33;19.90;99.90
11035;DHT22;5571;48.110;-1.706;2023-08-20T07:54:59;20.00;99.90
11035;DHT22;5571;48.110;-1.706;2023-08-20T07:57:25;20.10;99.90
11035;DHT22;5571;48.110;-1.706;2023-08-20T07:59:51;20.20;99.90
11035;DHT22;5571;48.110;-1.706;2023-08-20T08:02:16;20.40;99.90
11035;DHT22;5571;48.110;-1.706;2023-08-20T08:04:42;20.50;99.90
11035;DHT22;5571;48.110;-1.706;2023-08-20T08:07:09;20.60;99.90
11035;DHT22;5571;48.110;-1.706;2023-08-20T08:09:35;20.80;99.90
11035;DHT22;5571;48.110;-1.706;2023-08-20T08:12:01;21.00;99.90
11035;DHT22;5571;48.110;-1.706;2023-08-20T08:14:27;21.00;99.90
11035;DHT22;5571;48.110;-1.706;2023-08-20T08:16:53;20.90;99.90
11035;DHT22;5571;48.110;-1.706;2023-08-20T08:19:18;20.80;99.90
11035;DHT22;5571;48.110;-1.706;2023-08-20T08:21:46;20.80;99.90
11035;DHT22;5571;48.110;-1.706;2023-08-20T08:24:12;20.90;99.90
11035;DHT22;5571;48.110;-1.706;2023-08-20T08:26:39;21.00;99.90
11035;DHT22;5571;48.110;-1.706;2023-08-20T08:29:06;21.20;99.90
11035;DHT22;5571;48.110;-1.706;2023-08-20T08:31:32;21.30;99.90
11035;DHT22;5571;48.110;-1.706;2023-08-20T08:33:57;21.40;99.90
11035;DHT22;5571;48.110;-1.706;2023-08-20T08:36:23;21.50;99.90
11035;DHT22;5571;48.110;-1.706;2023-08-20T08:38:52;21.70;99.90
11035;DHT22;5571;48.110;-1.706;2023-08-20T08:41:21;21.80;99.90
11035;DHT22;5571;48.110;-1.706;2023-08-20T08:43:47;21.80;99.90
11035;DHT22;5571;48.110;-1.706;2023-08-20T08:46:15;21.90;99.90
11035;DHT22;5571;48.110;-1.706;2023-08-20T08:48:44;21.80;99.90
11035;DHT22;5571;48.110;-1.706;2023-08-20T08:51:10;21.70;99.90
11035;DHT22;5571;48.110;-1.706;2023-08-20T08:53:36;21.80;99.90
11035;DHT22;5571;48.110;-1.706;2023-08-20T08:56:03;21.90;99.90
11035;DHT22;5571;48.110;-1.706;2023-08-20T08:58:32;21.70;99.90
11035;DHT22;5571;48.110;-1.706;2023-08-20T09:00:58;21.90;99.90
11035;DHT22;5571;48.110;-1.706;2023-08-20T09:03:23;22.10;99.90
11035;DHT22;5571;48.110;-1.706;2023-08-20T09:05:57;22.40;99.90
11035;DHT22;5571;48.110;-1.706;2023-08-20T09:08:31;22.50;99.90
11035;DHT22;5571;48.110;-1.706;2023-08-20T09:10:59;22.70;99.90
11035;DHT22;5571;48.110;-1.706;2023-08-20T09:13:36;22.80;99.90
11035;DHT22;5571;48.110;-1.706;2023-08-20T09:16:05;22.80;99.90
11035;DHT22;5571;48.110;-1.706;2023-08-20T09:18:32;22.70;99.90
11035;DHT22;5571;48.110;-1.706;2023-08-20T09:20:59;22.80;99.90
11035;DHT22;5571;48.110;-1.706;2023-08-20T09:23:28;22.90;99.90
11035;DHT22;5571;48.110;-1.706;2023-08-20T09:25:54;23.20;99.90
11035;DHT22;5571;48.110;-1.706;2023-08-20T09:28:19;23.00;99.90
11035;DHT22;5571;48.110;-1.706;2023-08-20T09:30:59;23.00;99.90
11035;DHT22;5571;48.110;-1.706;2023-08-20T09:33:27;23.10;99.90
11035;DHT22;5571;48.110;-1.706;2023-08-20T09:35:53;22.90;99.90
11035;DHT22;5571;48.110;-1.706;2023-08-20T09:38:23;22.80;99.90
11035;DHT22;5571;48.110;-1.706;2023-08-20T09:40:53;22.90;99.90
11035;DHT22;5571;48.110;-1.706;2023-08-20T09:43:23;22.80;99.90
11035;DHT22;5571;48.110;-1.706;2023-08-20T09:45:53;22.90;99.90
11035;DHT22;5571;48.110;-1.706;2023-08-20T09:48:20;23.10;99.90
11035;DHT22;5571;48.110;-1.706;2023-08-20T09:50:47;23.20;99.90
11035;DHT22;5571;48.110;-1.706;2023-08-20T09:53:26;23.20;99.90
11035;DHT22;5571;48.110;-1.706;2023-08-20T09:55:52;23.20;99.90
11035;DHT22;5571;48.110;-1.706;2023-08-20T09:58:20;23.10;99.90
11035;DHT22;5571;48.110;-1.706;2023-08-20T10:00:51;23.30;99.90
11035;DHT22;5571;48.110;-1.706;2023-08-20T10:03:18;23.40;99.90
11035;DHT22;5571;48.110;-1.706;2023-08-20T10:05:47;23.50;99.90
11035;DHT22;5571;48.110;-1.706;2023-08-20T10:08:14;23.50;99.90
11035;DHT22;5571;48.110;-1.706;2023-08-20T10:10:40;23.50;99.90
11035;DHT22;5571;48.110;-1.706;2023-08-20T10:13:06;23.70;99.90
11035;DHT22;5571;48.110;-1.706;2023-08-20T10:15:32;23.80;99.90
11035;DHT22;5571;48.110;-1.706;2023-08-20T10:18:01;23.80;99.90
11035;DHT22;5571;48.110;-1.706;2023-08-20T10:20:29;23.90;99.90
11035;DHT22;5571;48.110;-1.706;2023-08-20T10:23:00;24.00;99.90
11035;DHT22;5571;48.110;-1.706;2023-08-20T10:25:26;23.80;99.90
11035;DHT22;5571;48.110;-1.706;2023-08-20T10:27:53;23.80;99.90
11035;DHT22;5571;48.110;-1.706;2023-08-20T10:30:26;24.00;99.90
11035;DHT22;5571;48.110;-1.706;2023-08-20T10:32:53;24.20;99.90
11035;DHT22;5571;48.110;-1.706;2023-08-20T10:35:25;24.10;99.90
11035;DHT22;5571;48.110;-1.706;2023-08-20T10:38:17;24.10;99.90
11035;DHT22;5571;48.110;-1.706;2023-08-20T10:43:33;23.80;99.90
11035;DHT22;5571;48.110;-1.706;2023-08-20T10:46:22;24.00;99.90
11035;DHT22;5571;48.110;-1.706;2023-08-20T10:51:30;24.20;99.90
11035;DHT22;5571;48.110;-1.706;2023-08-20T10:56:46;24.40;99.90
11035;DHT22;5571;48.110;-1.706;2023-08-20T10:59:22;24.50;99.90
11035;DHT22;5571;48.110;-1.706;2023-08-20T11:01:53;24.70;99.90
11035;DHT22;5571;48.110;-1.706;2023-08-20T11:04:19;25.00;99.90
11035;DHT22;5571;48.110;-1.706;2023-08-20T11:06:46;25.20;99.90
11035;DHT22;5571;48.110;-1.706;2023-08-20T11:09:12;25.30;99.90
11035;DHT22;5571;48.110;-1.706;2023-08-20T11:11:39;25.10;99.90
11035;DHT22;5571;48.110;-1.706;2023-08-20T11:14:12;25.20;99.90
11035;DHT22;5571;48.110;-1.706;2023-08-20T11:16:45;25.30;99.90
11035;DHT22;5571;48.110;-1.706;2023-08-20T11:19:11;25.20;99.90
11035;DHT22;5571;48.110;-1.706;2023-08-20T11:21:41;25.10;99.90
11035;DHT22;5571;48.110;-1.706;2023-08-20T11:24:07;25.30;99.90
11035;DHT22;5571;48.110;-1.706;2023-08-20T11:26:34;25.30;99.90
11035;DHT22;5571;48.110;-1.706;2023-08-20T11:29:11;25.30;99.90
11035;DHT22;5571;48.110;-1.706;2023-08-20T11:31:45;25.40;99.90
11035;DHT22;5571;48.110;-1.706;2023-08-20T11:34:11;25.70;99.90
11035;DHT22;5571;48.110;-1.706;2023-08-20T11:36:38;25.70;99.90
11035;DHT22;5571;48.110;-1.706;2023-08-20T11:39:05;25.70;99.90
11035;DHT22;5571;48.110;-1.706;2023-08-20T11:41:31;25.90;99.90
11035;DHT22;5571;48.110;-1.706;2023-08-20T11:44:00;26.00;99.90
11035;DHT22;5571;48.110;-1.706;2023-08-20T11:46:26;26.10;99.90
11035;DHT22;5571;48.110;-1.706;2023-08-20T11:51:27;26.70;99.90
11035;DHT22;5571;48.110;-1.706;2023-08-20T11:53:53;26.90;99.90
11035;DHT22;5571;48.110;-1.706;2023-08-20T11:56:18;26.60;99.90
11035;DHT22;5571;48.110;-1.706;2023-08-20T11:58:50;26.70;99.90
11035;DHT22;5571;48.110;-1.706;2023-08-20T12:01:17;26.80;99.90
11035;DHT22;5571;48.110;-1.706;2023-08-20T12:03:43;26.90;99.90
11035;DHT22;5571;48.110;-1.706;2023-08-20T12:06:22;26.90;99.90
11035;DHT22;5571;48.110;-1.706;2023-08-20T12:08:49;27.00;99.90
11035;DHT22;5571;48.110;-1.706;2023-08-20T12:11:15;27.00;99.90
11035;DHT22;5571;48.110;-1.706;2023-08-20T12:13:40;27.20;99.90
11035;DHT22;5571;48.110;-1.706;2023-08-20T12:16:06;27.30;99.90
11035;DHT22;5571;48.110;-1.706;2023-08-20T12:18:32;27.50;99.90
11035;DHT22;5571;48.110;-1.706;2023-08-20T12:20:58;27.70;99.90
11035;DHT22;5571;48.110;-1.706;2023-08-20T12:23:23;27.70;99.90
11035;DHT22;5571;48.110;-1.706;2023-08-20T12:25:52;27.80;99.90
11035;DHT22;5571;48.110;-1.706;2023-08-20T12:28:18;28.00;99.90
11035;DHT22;5571;48.110;-1.706;2023-08-20T12:30:44;28.30;99.90
11035;DHT22;5571;48.110;-1.706;2023-08-20T12:33:11;28.20;99.90
11035;DHT22;5571;48.110;-1.706;2023-08-20T12:35:36;28.10;99.90
11035;DHT22;5571;48.110;-1.706;2023-08-20T12:38:03;28.10;99.90
11035;DHT22;5571;48.110;-1.706;2023-08-20T12:40:29;28.20;99.90
11035;DHT22;5571;48.110;-1.706;2023-08-20T12:42:55;28.20;99.90
11035;DHT22;5571;48.110;-1.706;2023-08-20T12:45:20;27.90;99.90
11035;DHT22;5571;48.110;-1.706;2023-08-20T12:47:46;27.90;99.90
11035;DHT22;5571;48.110;-1.706;2023-08-20T12:50:11;27.80;99.90
11035;DHT22;5571;48.110;-1.706;2023-08-20T12:52:39;28.10;99.90
11035;DHT22;5571;48.110;-1.706;2023-08-20T12:55:05;28.30;99.90
11035;DHT22;5571;48.110;-1.706;2023-08-20T12:57:33;28.10;99.90
11035;DHT22;5571;48.110;-1.706;2023-08-20T12:59:59;28.20;99.90
11035;DHT22;5571;48.110;-1.706;2023-08-20T13:02:25;28.40;99.90
11035;DHT22;5571;48.110;-1.706;2023-08-20T13:04:51;28.60;99.90
11035;DHT22;5571;48.110;-1.706;2023-08-20T13:07:17;28.90;99.90
11035;DHT22;5571;48.110;-1.706;2023-08-20T13:09:43;28.80;99.90
11035;DHT22;5571;48.110;-1.706;2023-08-20T13:12:10;29.30;99.90
11035;DHT22;5571;48.110;-1.706;2023-08-20T13:14:39;29.10;99.90
11035;DHT22;5571;48.110;-1.706;2023-08-20T13:17:05;29.30;99.90
11035;DHT22;5571;48.110;-1.706;2023-08-20T13:19:31;29.40;99.90
11035;DHT22;5571;48.110;-1.706;2023-08-20T13:21:56;29.30;99.90
11035;DHT22;5571;48.110;-1.706;2023-08-20T13:24:22;29.60;99.90
11035;DHT22;5571;48.110;-1.706;2023-08-20T13:26:47;29.10;99.90
11035;DHT22;5571;48.110;-1.706;2023-08-20T13:29:13;28.90;99.90
11035;DHT22;5571;48.110;-1.706;2023-08-20T13:31:39;29.20;99.90
11035;DHT22;5571;48.110;-1.706;2023-08-20T13:34:05;28.90;99.90
11035;DHT22;5571;48.110;-1.706;2023-08-20T13:36:31;28.90;99.90
11035;DHT22;5571;48.110;-1.706;2023-08-20T13:38:56;29.10;99.90
11035;DHT22;5571;48.110;-1.706;2023-08-20T13:41:22;29.30;99.90
11035;DHT22;5571;48.110;-1.706;2023-08-20T13:43:47;29.10;99.90
11035;DHT22;5571;48.110;-1.706;2023-08-20T13:46:13;29.40;99.90
11035;DHT22;5571;48.110;-1.706;2023-08-20T13:48:38;29.30;99.90
11035;DHT22;5571;48.110;-1.706;2023-08-20T13:51:04;28.80;99.90
11035;DHT22;5571;48.110;-1.706;2023-08-20T13:53:30;28.80;99.90
11035;DHT22;5571;48.110;-1.706;2023-08-20T13:55:55;29.20;99.90
11035;DHT22;5571;48.110;-1.706;2023-08-20T13:58:21;29.50;99.90
11035;DHT22;5571;48.110;-1.706;2023-08-20T14:00:46;29.60;99.90
11035;DHT22;5571;48.110;-1.706;2023-08-20T14:03:12;30.00;99.90
11035;DHT22;5571;48.110;-1.706;2023-08-20T14:05:37;30.00;99.90
11035;DHT22;5571;48.110;-1.706;2023-08-20T14:08:03;30.30;99.90
11035;DHT22;5571;48.110;-1.706;2023-08-20T14:10:29;29.90;99.90
11035;DHT22;5571;48.110;-1.706;2023-08-20T14:12:55;30.10;99.90
11035;DHT22;5571;48.110;-1.706;2023-08-20T14:15:20;29.90;99.90
11035;DHT22;5571;48.110;-1.706;2023-08-20T14:17:46;29.90;99.90
11035;DHT22;5571;48.110;-1.706;2023-08-20T14:20:12;30.00;99.90
11035;DHT22;5571;48.110;-1.706;2023-08-20T14:22:39;29.80;99.90
11035;DHT22;5571;48.110;-1.706;2023-08-20T14:25:04;29.90;99.90
11035;DHT22;5571;48.110;-1.706;2023-08-20T14:27:30;29.80;99.90
11035;DHT22;5571;48.110;-1.706;2023-08-20T14:29:56;29.80;99.90
11035;DHT22;5571;48.110;-1.706;2023-08-20T14:32:21;30.00;99.90
11035;DHT22;5571;48.110;-1.706;2023-08-20T14:34:47;30.00;99.90
11035;DHT22;5571;48.110;-1.706;2023-08-20T14:37:13;30.00;99.90
11035;DHT22;5571;48.110;-1.706;2023-08-20T14:39:39;30.10;99.90
11035;DHT22;5571;48.110;-1.706;2023-08-20T14:42:05;30.00;99.90
11035;DHT22;5571;48.110;-1.706;2023-08-20T14:44:30;30.10;99.90
11035;DHT22;5571;48.110;-1.706;2023-08-20T14:46:56;30.30;99.90
11035;DHT22;5571;48.110;-1.706;2023-08-20T14:49:22;30.40;99.90
11035;DHT22;5571;48.110;-1.706;2023-08-20T14:51:48;30.10;99.90
11035;DHT22;5571;48.110;-1.706;2023-08-20T14:54:14;30.40;99.90
11035;DHT22;5571;48.110;-1.706;2023-08-20T14:56:40;30.70;99.90
11035;DHT22;5571;48.110;-1.706;2023-08-20T14:59:05;30.80;99.80
11035;DHT22;5571;48.110;-1.706;2023-08-20T15:01:31;30.70;99.90
11035;DHT22;5571;48.110;-1.706;2023-08-20T15:03:56;30.50;99.90
11035;DHT22;5571;48.110;-1.706;2023-08-20T15:06:22;30.30;99.90
11035;DHT22;5571;48.110;-1.706;2023-08-20T15:08:50;30.10;99.90
11035;DHT22;5571;48.110;-1.706;2023-08-20T15:11:15;30.00;99.90
11035;DHT22;5571;48.110;-1.706;2023-08-20T15:13:41;29.10;99.90
11035;DHT22;5571;48.110;-1.706;2023-08-20T15:16:06;29.20;99.90
11035;DHT22;5571;48.110;-1.706;2023-08-20T15:18:32;29.70;99.90
11035;DHT22;5571;48.110;-1.706;2023-08-20T15:20:59;29.90;99.90
11035;DHT22;5571;48.110;-1.706;2023-08-20T15:23:26;30.30;99.90
11035;DHT22;5571;48.110;-1.706;2023-08-20T15:25:55;30.50;99.90
11035;DHT22;5571;48.110;-1.706;2023-08-20T15:28:22;30.20;99.90
11035;DHT22;5571;48.110;-1.706;2023-08-20T15:30:50;30.30;99.90
11035;DHT22;5571;48.110;-1.706;2023-08-20T15:33:17;30.40;99.60
11035;DHT22;5571;48.110;-1.706;2023-08-20T15:35:42;29.80;99.70
11035;DHT22;5571;48.110;-1.706;2023-08-20T15:38:08;29.90;99.90
11035;DHT22;5571;48.110;-1.706;2023-08-20T15:40:33;29.70;99.70
11035;DHT22;5571;48.110;-1.706;2023-08-20T15:42:59;29.70;99.90
11035;DHT22;5571;48.110;-1.706;2023-08-20T15:45:25;30.10;99.90
11035;DHT22;5571;48.110;-1.706;2023-08-20T15:47:50;30.20;99.60